Time,TemperatureF,DewpointF,PressureIn,WindDirection,WindDirectionDegrees,WindSpeedMPH,WindSpeedGustMPH,Humidity,HourlyPrecipIn,Conditions,Clouds,dailyrainin,SoftwareType,DateUTC
2013-02-01 00:02:00,1.0,-99.9,-100.00,WNW,287,9.0,12.0,-999,0.00,,,0.00,,2013-02-01 06:02:00,
2013-02-01 00:12:00,1.0,-99.9,-100.00,WNW,287,9.0,12.0,-999,0.00,,,0.00,,2013-02-01 06:12:00,
2013-02-01 00:22:00,1.0,-99.9,-100.00,WNW,287,9.0,12.0,-999,0.00,,,0.00,,2013-02-01 06:22:00,
2013-02-01 01:02:00,1.0,-99.9,-100.00,West,270,8.0,14.0,-999,0.00,,,0.00,,2013-02-01 07:02:00,
2013-02-01 01:12:00,1.0,-99.9,-100.00,West,270,8.0,14.0,-999,0.00,,,0.00,,2013-02-01 07:12:00,
2013-02-01 01:22:00,1.0,-99.9,-100.00,West,270,8.0,14.0,-999,0.00,,,0.00,,2013-02-01 07:22:00,
2013-02-01 01:32:00,1.0,-99.9,-100.00,West,268,10.0,15.0,-999,0.00,,,0.00,,2013-02-01 07:32:00,
2013-02-01 01:42:00,1.0,-99.9,-100.00,West,268,10.0,15.0,-999,0.00,,,0.00,,2013-02-01 07:42:00,
2013-02-01 01:52:00,1.0,-99.9,-100.00,West,268,10.0,15.0,-999,0.00,,,0.00,,2013-02-01 07:52:00,
2013-02-01 04:32:00,-1.0,-99.9,-100.00,West,265,9.0,16.0,-999,0.00,,,0.00,,2013-02-01 10:32:00,
2013-02-01 04:43:00,-1.0,-99.9,-100.00,West,265,9.0,16.0,-999,0.00,,,0.00,,2013-02-01 10:43:00,
2013-02-01 04:53:00,-1.0,-99.9,-100.00,West,265,9.0,16.0,-999,0.00,,,0.00,,2013-02-01 10:53:00,
2013-02-01 05:03:00,-1.0,-99.9,-100.00,West,263,7.0,12.0,-999,0.00,,,0.00,,2013-02-01 11:03:00,
2013-02-01 05:12:00,-1.0,-99.9,-100.00,West,263,7.0,12.0,-999,0.00,,,0.00,,2013-02-01 11:12:00,
2013-02-01 05:22:00,-1.0,-99.9,-100.00,West,263,7.0,12.0,-999,0.00,,,0.00,,2013-02-01 11:22:00,
2013-02-01 05:32:00,-1.0,-99.9,-100.00,West,268,6.0,8.0,-999,0.00,,,0.00,,2013-02-01 11:32:00,
2013-02-01 05:42:00,-1.0,-99.9,-100.00,West,268,6.0,8.0,-999,0.00,,,0.00,,2013-02-01 11:42:00,
2013-02-01 05:53:00,-1.0,-99.9,-100.00,West,268,6.0,8.0,-999,0.00,,,0.00,,2013-02-01 11:53:00,
2013-02-01 06:03:00,-1.0,-99.9,-100.00,West,274,4.0,7.0,-999,0.00,,,0.00,,2013-02-01 12:03:00,
2013-02-01 06:12:00,-1.0,-99.9,-100.00,West,274,4.0,7.0,-999,0.00,,,0.00,,2013-02-01 12:12:00,
2013-02-01 06:23:00,-1.0,-99.9,-100.00,West,274,4.0,7.0,-999,0.00,,,0.00,,2013-02-01 12:23:00,
2013-02-01 06:32:00,-1.0,-99.9,-100.00,WSW,253,5.0,10.0,-999,0.00,,,0.00,,2013-02-01 12:32:00,
2013-02-01 06:42:00,-1.0,-99.9,-100.00,WSW,253,5.0,10.0,-999,0.00,,,0.00,,2013-02-01 12:42:00,
2013-02-01 06:52:00,-1.0,-99.9,-100.00,WSW,253,5.0,10.0,-999,0.00,,,0.00,,2013-02-01 12:52:00,
2013-02-01 07:02:00,-1.0,-99.9,-100.00,West,270,8.0,11.0,-999,0.00,,,0.00,,2013-02-01 13:02:00,
2013-02-01 07:12:00,-1.0,-99.9,-100.00,West,270,8.0,11.0,-999,0.00,,,0.00,,2013-02-01 13:12:00,
2013-02-01 07:22:00,-1.0,-99.9,-100.00,West,270,8.0,11.0,-999,0.00,,,0.00,,2013-02-01 13:22:00,
2013-02-01 07:30:00,-2.0,-99.9,-100.00,WNW,295,4.0,7.0,-999,0.00,,,0.00,,2013-02-01 13:30:00,
2013-02-01 07:33:00,-2.0,-99.9,-100.00,West,260,7.0,10.0,-999,0.00,,,0.00,,2013-02-01 13:33:00,
2013-02-01 07:43:00,-2.0,-99.9,-100.00,West,260,7.0,10.0,-999,0.00,,,0.00,,2013-02-01 13:43:00,
2013-02-01 07:53:00,-2.0,-99.9,-100.00,West,260,7.0,10.0,-999,0.00,,,0.00,,2013-02-01 13:53:00,
2013-02-01 08:04:00,-2.0,-99.9,-100.00,WNW,295,4.0,7.0,-999,0.00,,,0.00,,2013-02-01 14:04:00,
2013-02-01 08:12:00,-2.0,-99.9,-100.00,WNW,295,4.0,7.0,-999,0.00,,,0.00,,2013-02-01 14:12:00,
2013-02-01 08:22:00,-2.0,-99.9,-100.00,WNW,295,4.0,7.0,-999,0.00,,,0.00,,2013-02-01 14:22:00,
2013-02-01 09:03:00,-2.0,-99.9,-100.00,West,281,8.0,12.0,-999,0.00,,,0.00,,2013-02-01 15:03:00,
2013-02-01 09:12:00,-2.0,-99.9,-100.00,West,281,8.0,12.0,-999,0.00,,,0.00,,2013-02-01 15:12:00,
2013-02-01 09:22:00,-2.0,-99.9,-100.00,West,281,8.0,12.0,-999,0.00,,,0.00,,2013-02-01 15:22:00,
2013-02-01 09:33:00,-1.0,-99.9,-100.00,West,270,9.0,13.0,-999,0.00,,,0.00,,2013-02-01 15:33:00,
2013-02-01 09:42:00,-1.0,-99.9,-100.00,West,270,9.0,13.0,-999,0.00,,,0.00,,2013-02-01 15:42:00,
2013-02-01 09:52:00,-1.0,-99.9,-100.00,West,270,9.0,13.0,-999,0.00,,,0.00,,2013-02-01 15:52:00,
2013-02-01 10:03:00,-1.0,-99.9,-100.00,WSW,249,11.0,14.0,-999,0.00,,,0.00,,2013-02-01 16:03:00,
2013-02-01 10:12:00,-1.0,-99.9,-100.00,WSW,249,11.0,14.0,-999,0.00,,,0.00,,2013-02-01 16:12:00,
2013-02-01 10:22:00,-1.0,-99.9,-100.00,WSW,249,11.0,14.0,-999,0.00,,,0.00,,2013-02-01 16:22:00,
2013-02-01 10:33:00,-1.0,-99.9,-100.00,West,278,9.0,13.0,-999,0.00,,,0.00,,2013-02-01 16:33:00,
2013-02-01 10:43:00,-1.0,-99.9,-100.00,West,278,9.0,13.0,-999,0.00,,,0.00,,2013-02-01 16:43:00,
2013-02-01 10:53:00,-1.0,-99.9,-100.00,West,278,9.0,13.0,-999,0.00,,,0.00,,2013-02-01 16:53:00,
2013-02-01 11:03:00,1.0,-99.9,-100.00,West,265,7.0,10.0,-999,0.00,,,0.00,,2013-02-01 17:03:00,
2013-02-01 11:12:00,1.0,-99.9,-100.00,West,265,7.0,10.0,-999,0.00,,,0.00,,2013-02-01 17:12:00,
2013-02-01 11:22:00,1.0,-99.9,-100.00,West,265,7.0,10.0,-999,0.00,,,0.00,,2013-02-01 17:22:00,
2013-02-01 11:32:00,1.0,-99.9,-100.00,West,277,8.0,12.0,-999,0.00,,,0.00,,2013-02-01 17:32:00,
2013-02-01 11:42:00,1.0,-99.9,-100.00,West,277,8.0,12.0,-999,0.00,,,0.00,,2013-02-01 17:42:00,
2013-02-01 11:53:00,1.0,-99.9,-100.00,West,277,8.0,12.0,-999,0.00,,,0.00,,2013-02-01 17:53:00,
2013-02-01 12:03:00,3.0,-99.9,-100.00,WSW,239,9.0,13.0,-999,0.00,,,0.00,,2013-02-01 18:03:00,
2013-02-01 12:13:00,3.0,-99.9,-100.00,WSW,239,9.0,13.0,-999,0.00,,,0.00,,2013-02-01 18:13:00,
2013-02-01 12:23:00,3.0,-99.9,-100.00,WSW,239,9.0,13.0,-999,0.00,,,0.00,,2013-02-01 18:23:00,
2013-02-01 12:33:00,3.0,-99.9,-100.00,West,269,8.0,11.0,-999,0.00,,,0.00,,2013-02-01 18:33:00,
2013-02-01 12:42:00,3.0,-99.9,-100.00,West,269,8.0,11.0,-999,0.00,,,0.00,,2013-02-01 18:42:00,
2013-02-01 12:53:00,3.0,-99.9,-100.00,West,269,8.0,11.0,-999,0.00,,,0.00,,2013-02-01 18:53:00,
2013-02-01 13:03:00,6.0,-99.9,-100.00,WSW,238,6.0,12.0,-999,0.00,,,0.00,,2013-02-01 19:03:00,
2013-02-01 13:12:00,6.0,-99.9,-100.00,WSW,238,6.0,12.0,-999,0.00,,,0.00,,2013-02-01 19:12:00,
2013-02-01 13:22:00,6.0,-99.9,-100.00,WSW,238,6.0,12.0,-999,0.00,,,0.00,,2013-02-01 19:22:00,
2013-02-01 13:33:00,7.0,-99.9,-100.00,SW,221,7.0,11.0,-999,0.00,,,0.00,,2013-02-01 19:33:00,
2013-02-01 13:42:00,7.0,-99.9,-100.00,SW,221,7.0,11.0,-999,0.00,,,0.00,,2013-02-01 19:42:00,
2013-02-01 13:52:00,7.0,-99.9,-100.00,SW,221,7.0,11.0,-999,0.00,,,0.00,,2013-02-01 19:52:00,
2013-02-01 14:03:00,8.0,-99.9,-100.00,West,263,7.0,9.0,-999,0.00,,,0.00,,2013-02-01 20:03:00,
2013-02-01 14:12:00,8.0,-99.9,-100.00,West,263,7.0,9.0,-999,0.00,,,0.00,,2013-02-01 20:12:00,
2013-02-01 14:22:00,8.0,-99.9,-100.00,West,263,7.0,9.0,-999,0.00,,,0.00,,2013-02-01 20:22:00,
2013-02-01 14:32:00,9.0,-99.9,-100.00,SW,221,7.0,11.0,-999,0.00,,,0.00,,2013-02-01 20:32:00,
2013-02-01 14:42:00,9.0,-99.9,-100.00,SW,221,7.0,11.0,-999,0.00,,,0.00,,2013-02-01 20:42:00,
2013-02-01 14:52:00,9.0,-99.9,-100.00,SW,221,7.0,11.0,-999,0.00,,,0.00,,2013-02-01 20:52:00,
2013-02-01 15:02:00,10.0,-99.9,-100.00,SSW,209,5.0,11.0,-999,0.00,,,0.00,,2013-02-01 21:02:00,
2013-02-01 15:12:00,10.0,-99.9,-100.00,SSW,209,5.0,11.0,-999,0.00,,,0.00,,2013-02-01 21:12:00,
2013-02-01 15:22:00,10.0,-99.9,-100.00,SSW,209,5.0,11.0,-999,0.00,,,0.00,,2013-02-01 21:22:00,
2013-02-01 15:32:00,9.0,-99.9,-100.00,SW,228,10.0,13.0,-999,0.00,,,0.00,,2013-02-01 21:32:00,
2013-02-01 15:42:00,9.0,-99.9,-100.00,SW,228,10.0,13.0,-999,0.00,,,0.00,,2013-02-01 21:42:00,
2013-02-01 15:53:00,9.0,-99.9,-100.00,SW,228,10.0,13.0,-999,0.00,,,0.00,,2013-02-01 21:53:00,
2013-02-01 16:11:00,10.0,-99.9,-100.00,SW,235,13.0,16.0,-999,0.00,,,0.00,,2013-02-01 22:11:00,
2013-02-01 16:22:00,10.0,-99.9,-100.00,SW,235,13.0,16.0,-999,0.00,,,0.00,,2013-02-01 22:22:00,
2013-02-01 16:32:00,10.0,-99.9,-100.00,SW,236,10.0,12.0,-999,0.00,,,0.00,,2013-02-01 22:32:00,
2013-02-01 16:42:00,10.0,-99.9,-100.00,SW,236,10.0,12.0,-999,0.00,,,0.00,,2013-02-01 22:42:00,
2013-02-01 16:52:00,10.0,-99.9,-100.00,SW,236,10.0,12.0,-999,0.00,,,0.00,,2013-02-01 22:52:00,
2013-02-01 17:02:00,11.0,-99.9,-100.00,SW,215,5.0,11.0,-999,0.00,,,0.00,,2013-02-01 23:02:00,
2013-02-01 17:11:00,11.0,-99.9,-100.00,SW,215,5.0,11.0,-999,0.00,,,0.00,,2013-02-01 23:11:00,
2013-02-01 17:22:00,11.0,-99.9,-100.00,SW,215,5.0,11.0,-999,0.00,,,0.00,,2013-02-01 23:22:00,
2013-02-01 17:32:00,12.0,-99.9,-100.00,SW,217,6.0,11.0,-999,0.00,,,0.00,,2013-02-01 23:32:00,
2013-02-01 17:42:00,12.0,-99.9,-100.00,SW,217,6.0,11.0,-999,0.00,,,0.00,,2013-02-01 23:42:00,
2013-02-01 17:52:00,12.0,-99.9,-100.00,SW,217,6.0,11.0,-999,0.00,,,0.00,,2013-02-01 23:52:00,
2013-02-01 18:02:00,12.0,-99.9,-100.00,SW,222,4.0,11.0,-999,0.00,,,0.00,,2013-02-02 00:02:00,
2013-02-01 18:11:00,12.0,-99.9,-100.00,SW,222,4.0,11.0,-999,0.00,,,0.00,,2013-02-02 00:11:00,
2013-02-01 18:22:00,12.0,-99.9,-100.00,SW,222,4.0,11.0,-999,0.00,,,0.00,,2013-02-02 00:22:00,
2013-02-01 18:32:00,13.0,-99.9,-100.00,SW,218,6.0,11.0,-999,0.00,,,0.00,,2013-02-02 00:32:00,
2013-02-01 18:42:00,13.0,-99.9,-100.00,SW,218,6.0,11.0,-999,0.00,,,0.00,,2013-02-02 00:42:00,
2013-02-01 18:52:00,13.0,-99.9,-100.00,SW,218,6.0,11.0,-999,0.00,,,0.00,,2013-02-02 00:52:00,
2013-02-01 19:03:00,13.0,-99.9,-100.00,South,172,4.0,6.0,-999,0.00,,,0.00,,2013-02-02 01:03:00,
2013-02-01 19:11:00,13.0,-99.9,-100.00,South,172,4.0,6.0,-999,0.00,,,0.00,,2013-02-02 01:11:00,
2013-02-01 19:22:00,13.0,-99.9,-100.00,South,172,4.0,6.0,-999,0.00,,,0.00,,2013-02-02 01:22:00,
2013-02-01 19:32:00,14.0,-99.9,-100.00,South,176,5.0,9.0,-999,0.00,,,0.00,,2013-02-02 01:32:00,
2013-02-01 19:42:00,14.0,-99.9,-100.00,South,176,5.0,9.0,-999,0.00,,,0.00,,2013-02-02 01:42:00,
2013-02-01 19:52:00,14.0,-99.9,-100.00,South,176,5.0,9.0,-999,0.00,,,0.00,,2013-02-02 01:52:00,
2013-02-01 20:01:00,15.0,-99.9,-100.00,South,175,5.0,8.0,-999,0.00,,,0.00,,2013-02-02 02:01:00,
2013-02-01 20:11:00,15.0,-99.9,-100.00,South,175,5.0,8.0,-999,0.00,,,0.00,,2013-02-02 02:11:00,
2013-02-01 20:22:00,15.0,-99.9,-100.00,South,175,5.0,8.0,-999,0.00,,,0.00,,2013-02-02 02:22:00,
2013-02-01 20:32:00,16.0,-99.9,-100.00,South,176,4.0,8.0,-999,0.00,,,0.00,,2013-02-02 02:32:00,
2013-02-01 20:42:00,16.0,-99.9,-100.00,South,176,4.0,8.0,-999,0.00,,,0.00,,2013-02-02 02:42:00,
2013-02-01 20:52:00,16.0,-99.9,-100.00,South,176,4.0,8.0,-999,0.00,,,0.00,,2013-02-02 02:52:00,
2013-02-01 21:02:00,16.0,-99.9,-100.00,SSE,167,4.0,7.0,-999,0.00,,,0.00,,2013-02-02 03:02:00,
2013-02-01 21:12:00,16.0,-99.9,-100.00,SSE,167,4.0,7.0,-999,0.00,,,0.00,,2013-02-02 03:12:00,
2013-02-01 21:22:00,16.0,-99.9,-100.00,SSE,167,4.0,7.0,-999,0.00,,,0.00,,2013-02-02 03:22:00,
2013-02-01 21:32:00,18.0,-99.9,-100.00,South,169,4.0,6.0,-999,0.00,,,0.00,,2013-02-02 03:32:00,
2013-02-01 21:42:00,18.0,-99.9,-100.00,South,169,4.0,6.0,-999,0.00,,,0.00,,2013-02-02 03:42:00,
2013-02-01 21:52:00,18.0,-99.9,-100.00,South,169,4.0,6.0,-999,0.00,,,0.00,,2013-02-02 03:52:00,
2013-02-01 22:02:00,19.0,-99.9,-100.00,South,172,5.0,7.0,-999,0.00,,,0.00,,2013-02-02 04:02:00,
2013-02-01 22:11:00,19.0,-99.9,-100.00,South,172,5.0,7.0,-999,0.00,,,0.00,,2013-02-02 04:11:00,
2013-02-01 22:22:00,19.0,-99.9,-100.00,South,172,5.0,7.0,-999,0.00,,,0.00,,2013-02-02 04:22:00,
2013-02-01 22:33:00,20.0,-99.9,-100.00,South,175,4.0,6.0,-999,0.00,,,0.00,,2013-02-02 04:33:00,
2013-02-01 22:42:00,20.0,-99.9,-100.00,South,175,4.0,6.0,-999,0.00,,,0.00,,2013-02-02 04:42:00,
2013-02-01 22:52:00,20.0,-99.9,-100.00,South,175,4.0,6.0,-999,0.00,,,0.00,,2013-02-02 04:52:00,
2013-02-01 23:03:00,21.0,-99.9,-100.00,SSW,195,3.0,6.0,-999,0.00,,,0.00,,2013-02-02 05:03:00,
2013-02-01 23:12:00,21.0,-99.9,-100.00,SSW,195,3.0,6.0,-999,0.00,,,0.00,,2013-02-02 05:12:00,
2013-02-01 23:22:00,21.0,-99.9,-100.00,SSW,195,3.0,6.0,-999,0.00,,,0.00,,2013-02-02 05:22:00,
2013-02-01 23:33:00,20.0,-99.9,-100.00,SSW,212,3.0,6.0,-999,0.00,,,0.00,,2013-02-02 05:33:00,
2013-02-01 23:42:00,20.0,-99.9,-100.00,SSW,212,3.0,6.0,-999,0.00,,,0.00,,2013-02-02 05:42:00,
2013-02-01 23:52:00,20.0,-99.9,-100.00,SSW,212,3.0,6.0,-999,0.00,,,0.00,,2013-02-02 05:52:00,